createdAt,value
2018-04-15T00:00:47.163Z,7.90
2018-04-15T00:03:15.274Z,7.80
2018-04-15T00:05:43.406Z,7.80
2018-04-15T00:08:11.528Z,7.80
2018-04-15T00:10:40.387Z,7.70
2018-04-15T00:13:08.514Z,7.70
2018-04-15T00:15:36.616Z,7.70
2018-04-15T00:18:05.311Z,7.60
2018-04-15T00:20:33.400Z,7.60
2018-04-15T00:23:01.497Z,7.50
2018-04-15T00:25:29.738Z,7.50
2018-04-15T00:27:57.859Z,7.40
2018-04-15T00:30:29.981Z,7.40
2018-04-15T00:32:58.066Z,7.40
2018-04-15T00:35:26.183Z,7.40
2018-04-15T00:37:54.263Z,7.40
2018-04-15T00:40:26.862Z,7.40
2018-04-15T00:42:54.958Z,7.50
2018-04-15T00:45:23.052Z,7.50
2018-04-15T00:47:51.937Z,7.40
2018-04-15T00:50:20.034Z,7.40
2018-04-15T00:52:48.471Z,7.40
2018-04-15T00:55:16.561Z,7.30
2018-04-15T00:57:45.437Z,7.30
2018-04-15T01:00:13.504Z,7.20
2018-04-15T01:02:41.643Z,7.20
2018-04-15T01:05:09.729Z,7.10
2018-04-15T01:07:37.863Z,7.10
2018-04-15T01:10:05.980Z,7.00
2018-04-15T01:12:34.089Z,7.00
2018-04-15T01:15:03.514Z,7.00
2018-04-15T01:17:35.695Z,6.90
2018-04-15T01:20:03.836Z,6.90
2018-04-15T01:22:32.045Z,6.90
2018-04-15T01:25:00.152Z,6.80
2018-04-15T01:27:28.277Z,6.80
2018-04-15T01:29:56.404Z,6.80
2018-04-15T01:32:24.472Z,6.80
2018-04-15T01:34:52.577Z,6.70
2018-04-15T01:37:20.676Z,6.70
2018-04-15T01:39:48.854Z,6.70
2018-04-15T01:42:17.024Z,6.70
2018-04-15T01:44:45.132Z,6.70
2018-04-15T01:47:13.558Z,6.60
2018-04-15T01:49:41.858Z,6.60
2018-04-15T01:52:10.082Z,6.60
2018-04-15T01:54:38.186Z,6.60
2018-04-15T01:57:06.301Z,6.50
2018-04-15T01:59:34.877Z,6.50
2018-04-15T02:02:03.125Z,6.50
2018-04-15T02:04:32.133Z,6.50
2018-04-15T02:07:00.243Z,6.40
2018-04-15T02:09:28.344Z,6.40
2018-04-15T02:11:56.442Z,6.40
2018-04-15T02:14:24.533Z,6.40
2018-04-15T02:16:52.637Z,6.40
2018-04-15T02:19:20.757Z,6.40
2018-04-15T02:21:49.383Z,6.40
2018-04-15T02:24:17.465Z,6.40
2018-04-15T02:26:45.596Z,6.40
2018-04-15T02:29:13.696Z,6.40
2018-04-15T02:31:41.786Z,6.40
2018-04-15T02:34:10.654Z,6.40
2018-04-15T02:36:38.743Z,6.40
2018-04-15T02:39:07.660Z,6.40
2018-04-15T02:41:35.763Z,6.40
2018-04-15T02:44:04.604Z,6.40
2018-04-15T02:46:32.729Z,6.40
2018-04-15T02:49:00.844Z,6.40
2018-04-15T02:51:28.955Z,6.40
2018-04-15T02:53:57.150Z,6.40
2018-04-15T02:56:25.244Z,6.40
2018-04-15T02:58:53.368Z,6.40
2018-04-15T03:01:21.467Z,6.40
2018-04-15T03:03:49.873Z,6.40
2018-04-15T03:06:17.991Z,6.40
2018-04-15T03:08:46.072Z,6.40
2018-04-15T03:11:14.187Z,6.40
2018-04-15T03:13:42.346Z,6.40
2018-04-15T03:16:10.510Z,6.40
2018-04-15T03:18:38.708Z,6.40
2018-04-15T03:21:06.831Z,6.40
2018-04-15T03:23:34.924Z,6.40
2018-04-15T03:26:03.031Z,6.40
2018-04-15T03:28:31.121Z,6.50
2018-04-15T03:30:59.190Z,6.50
2018-04-15T03:33:28.852Z,6.60
2018-04-15T03:35:56.933Z,6.60
2018-04-15T03:38:25.033Z,6.70
2018-04-15T03:40:53.147Z,6.70
2018-04-15T03:43:21.271Z,6.80
2018-04-15T03:45:49.527Z,6.80
2018-04-15T03:48:17.629Z,6.90
2018-04-15T03:50:45.735Z,6.90
2018-04-15T03:53:13.830Z,7.00
2018-04-15T03:55:41.964Z,7.10
2018-04-15T03:58:10.068Z,7.10
2018-04-15T04:00:38.500Z,7.20
2018-04-15T04:03:07.381Z,7.20
2018-04-15T04:05:36.265Z,7.20
2018-04-15T04:08:04.358Z,7.30
2018-04-15T04:10:32.528Z,7.30
2018-04-15T04:13:00.636Z,7.30
2018-04-15T04:15:28.760Z,7.40
2018-04-15T04:18:14.404Z,7.40
2018-04-15T04:21:00.150Z,7.40
2018-04-15T04:23:46.023Z,7.50
2018-04-15T04:26:14.929Z,7.50
2018-04-15T04:28:43.786Z,7.50
2018-04-15T04:31:11.878Z,7.50
2018-04-15T04:33:39.995Z,7.50
2018-04-15T04:36:08.089Z,7.50
2018-04-15T04:38:36.204Z,7.50
2018-04-15T04:41:04.311Z,7.40
2018-04-15T04:43:32.751Z,7.40
2018-04-15T04:58:55.901Z,6.80
2018-04-15T05:01:24.018Z,6.80
2018-04-15T05:03:52.133Z,6.80
2018-04-15T05:06:20.227Z,6.80
2018-04-15T05:08:48.617Z,6.90
2018-04-15T05:11:16.722Z,7.00
2018-04-15T05:13:44.807Z,7.10
2018-04-15T05:16:12.928Z,7.10
2018-04-15T05:18:41.029Z,7.20
2018-04-15T05:21:09.155Z,7.30
2018-04-15T05:23:37.241Z,7.50
2018-04-15T05:26:05.362Z,7.60
2018-04-15T05:28:33.454Z,7.70
2018-04-15T05:31:01.564Z,7.80
2018-04-15T05:33:29.704Z,7.90
2018-04-15T05:35:57.813Z,8.00
2018-04-15T05:38:25.927Z,8.10
2018-04-15T05:40:54.016Z,8.20
2018-04-15T05:43:22.104Z,8.30
2018-04-15T05:45:50.254Z,8.40
2018-04-15T05:48:18.400Z,8.50
2018-04-15T05:50:46.642Z,8.60
2018-04-15T05:53:14.861Z,8.70
2018-04-15T05:55:42.967Z,8.80
2018-04-15T05:58:11.079Z,8.90
2018-04-15T06:00:39.176Z,9.10
2018-04-15T06:03:07.279Z,9.20
2018-04-15T06:05:35.396Z,9.30
2018-04-15T06:08:03.520Z,9.50
2018-04-15T06:10:31.623Z,9.60
2018-04-15T06:13:05.078Z,9.80
2018-04-15T06:15:33.191Z,9.90
2018-04-15T06:18:01.309Z,10.00
2018-04-15T06:20:29.437Z,10.10
2018-04-15T06:22:57.539Z,10.20
2018-04-15T06:25:26.192Z,10.30
2018-04-15T06:27:54.326Z,10.50
2018-04-15T06:30:22.438Z,10.60
2018-04-15T06:32:50.573Z,10.70
2018-04-15T06:35:18.716Z,10.80
2018-04-15T06:37:46.830Z,10.90
2018-04-15T06:40:14.920Z,11.00
2018-04-15T06:42:43.044Z,11.10
2018-04-15T06:45:11.137Z,11.30
2018-04-15T06:47:39.301Z,11.40
2018-04-15T06:50:08.148Z,11.50
2018-04-15T06:52:36.311Z,11.60
2018-04-15T06:55:04.421Z,11.80
2018-04-15T06:57:32.551Z,11.90
2018-04-15T07:00:00.653Z,12.00
2018-04-15T07:02:28.745Z,12.20
2018-04-15T07:04:56.849Z,12.30
2018-04-15T07:07:24.956Z,12.50
2018-04-15T07:09:53.069Z,12.60
2018-04-15T07:12:21.177Z,12.70
2018-04-15T07:14:49.283Z,12.90
2018-04-15T07:17:17.382Z,13.00
2018-04-15T07:19:45.579Z,13.20
2018-04-15T07:22:13.777Z,13.40
2018-04-15T07:24:42.022Z,13.50
2018-04-15T07:27:10.209Z,13.70
2018-04-15T07:29:39.095Z,13.80
2018-04-15T07:32:07.203Z,13.90
2018-04-15T07:34:35.295Z,14.10
2018-04-15T07:37:03.399Z,14.20
2018-04-15T07:39:31.591Z,14.30
2018-04-15T07:42:00.474Z,14.50
2018-04-15T07:44:28.577Z,14.60
2018-04-15T07:46:57.830Z,14.70
2018-04-15T07:49:25.966Z,14.80
2018-04-15T07:51:54.114Z,15.00
2018-04-15T07:54:22.225Z,15.10
2018-04-15T07:56:50.399Z,15.20
2018-04-15T07:59:18.540Z,15.30
2018-04-15T08:01:46.746Z,15.40
2018-04-15T08:04:14.906Z,15.60
2018-04-15T08:06:43.070Z,15.70
2018-04-15T08:09:11.189Z,15.90
2018-04-15T08:11:39.322Z,16.00
2018-04-15T08:14:07.438Z,16.10
2018-04-15T08:16:41.730Z,16.10
2018-04-15T08:19:18.858Z,16.20
2018-04-15T08:21:51.997Z,16.30
2018-04-15T08:24:20.232Z,16.40
2018-04-15T08:26:52.637Z,16.60
2018-04-15T08:29:20.786Z,16.70
2018-04-15T08:31:48.891Z,16.80
2018-04-15T08:34:17.022Z,16.90
2018-04-15T08:36:45.914Z,17.00
2018-04-15T08:39:14.003Z,17.10
2018-04-15T08:41:42.684Z,17.20
2018-04-15T08:44:10.795Z,17.30
2018-04-15T08:46:38.897Z,17.40
2018-04-15T08:49:07.028Z,17.50
2018-04-15T08:51:35.129Z,17.60
2018-04-15T08:54:03.239Z,17.70
2018-04-15T08:56:31.401Z,17.80
2018-04-15T08:58:59.500Z,18.00
2018-04-15T09:01:27.647Z,18.10
2018-04-15T09:03:56.539Z,18.20
2018-04-15T09:06:25.471Z,18.30
2018-04-15T09:08:53.597Z,18.40
2018-04-15T09:11:21.715Z,18.40
2018-04-15T09:13:49.825Z,18.50
2018-04-15T09:16:17.939Z,18.60
2018-04-15T09:18:46.052Z,18.70
2018-04-15T09:21:14.156Z,18.70
2018-04-15T09:23:42.299Z,18.80
2018-04-15T09:26:10.464Z,18.80
2018-04-15T09:28:38.615Z,18.90
2018-04-15T09:31:12.486Z,18.90
2018-04-15T09:33:41.622Z,19.00
2018-04-15T09:36:09.745Z,19.00
2018-04-15T09:38:37.870Z,19.00
2018-04-15T09:41:06.428Z,19.10
2018-04-15T09:43:35.292Z,19.00
2018-04-15T09:46:03.437Z,19.00
2018-04-15T09:48:31.803Z,19.10
2018-04-15T09:50:59.984Z,19.20
2018-04-15T09:53:28.156Z,19.40
2018-04-15T09:55:56.318Z,19.60
2018-04-15T09:58:24.808Z,19.80
2018-04-15T10:01:07.905Z,20.00
2018-04-15T10:03:36.015Z,20.30
2018-04-15T10:06:04.330Z,20.40
2018-04-15T10:08:33.212Z,20.60
2018-04-15T10:11:02.194Z,20.80
2018-04-15T10:13:30.296Z,21.00
2018-04-15T10:15:58.410Z,21.20
2018-04-15T10:18:26.674Z,21.40
2018-04-15T10:20:55.143Z,21.50
2018-04-15T10:23:23.276Z,21.50
2018-04-15T10:25:53.898Z,21.60
2018-04-15T10:28:22.346Z,21.70
2018-04-15T10:30:50.491Z,21.80
2018-04-15T10:33:18.607Z,22.00
2018-04-15T10:35:47.664Z,22.10
2018-04-15T10:38:15.825Z,22.30
2018-04-15T10:40:43.934Z,22.40
2018-04-15T10:43:12.055Z,22.50
2018-04-15T10:45:40.189Z,22.60
2018-04-15T10:48:08.304Z,22.60
2018-04-15T10:50:36.414Z,22.60
2018-04-15T10:53:04.533Z,22.70
2018-04-15T10:55:32.722Z,22.70
2018-04-15T10:58:00.833Z,22.80
2018-04-15T11:00:28.960Z,22.90
2018-04-15T11:02:57.140Z,23.00
2018-04-15T11:05:25.268Z,22.80
2018-04-15T11:07:53.412Z,22.70
2018-04-15T11:10:21.528Z,22.70
2018-04-15T11:12:49.642Z,22.60
2018-04-15T11:15:17.753Z,22.60
2018-04-15T11:17:45.999Z,22.60
2018-04-15T11:20:14.657Z,22.60
2018-04-15T11:22:42.794Z,22.60
2018-04-15T11:25:11.600Z,22.60
2018-04-15T11:27:39.813Z,22.60
2018-04-15T11:30:07.930Z,22.60
2018-04-15T11:32:36.037Z,22.50
2018-04-15T11:35:04.168Z,22.50
2018-04-15T11:37:32.264Z,22.50
2018-04-15T11:40:00.396Z,22.40
2018-04-15T11:42:28.504Z,22.30
2018-04-15T11:44:56.616Z,22.30
2018-04-15T11:47:25.419Z,22.30
2018-04-15T11:49:53.497Z,22.30
2018-04-15T11:52:21.616Z,22.40
2018-04-15T11:54:49.711Z,22.60
2018-04-15T11:57:18.507Z,22.70
2018-04-15T11:59:46.614Z,22.90
2018-04-15T12:02:14.860Z,23.00
2018-04-15T12:04:42.947Z,23.10
2018-04-15T12:07:12.063Z,23.20
2018-04-15T12:09:40.982Z,23.40
2018-04-15T12:12:09.109Z,23.50
2018-04-15T12:14:37.565Z,23.70
2018-04-15T12:17:05.667Z,23.80
2018-04-15T12:19:33.839Z,23.90
2018-04-15T12:22:01.940Z,24.00
2018-04-15T12:24:30.077Z,24.10
2018-04-15T12:26:58.202Z,24.10
2018-04-15T12:29:26.327Z,24.10
2018-04-15T12:31:54.436Z,24.20
2018-04-15T12:34:22.567Z,24.40
2018-04-15T12:36:50.687Z,24.60
2018-04-15T12:39:18.811Z,24.90
2018-04-15T12:41:47.721Z,25.10
2018-04-15T12:44:16.129Z,25.20
2018-04-15T12:46:44.263Z,25.40
2018-04-15T12:49:12.363Z,25.60
2018-04-15T12:51:40.566Z,25.90
2018-04-15T12:54:08.667Z,26.20
2018-04-15T12:56:37.016Z,26.80
2018-04-15T12:59:05.168Z,27.30
2018-04-15T13:01:33.545Z,27.50
2018-04-15T13:04:01.678Z,27.60
2018-04-15T13:06:29.780Z,27.40
2018-04-15T13:08:57.887Z,27.20
2018-04-15T13:11:26.072Z,27.00
2018-04-15T13:13:54.137Z,27.10
2018-04-15T13:16:22.230Z,27.30
2018-04-15T13:18:50.332Z,27.40
2018-04-15T13:21:18.447Z,27.50
2018-04-15T13:23:46.544Z,27.40
2018-04-15T13:26:14.663Z,27.50
2018-04-15T13:28:42.761Z,27.60
2018-04-15T13:31:10.924Z,27.60
2018-04-15T13:33:39.189Z,27.60
2018-04-15T13:36:07.343Z,27.50
2018-04-15T13:38:35.450Z,27.30
2018-04-15T13:41:03.594Z,27.00
2018-04-15T13:43:31.716Z,26.70
2018-04-15T13:45:59.871Z,26.50
2018-04-15T13:48:28.205Z,26.30
2018-04-15T13:50:56.366Z,26.30
2018-04-15T13:53:24.517Z,26.20
2018-04-15T13:55:53.388Z,26.10
2018-04-15T13:58:21.519Z,26.00
2018-04-15T14:00:49.631Z,25.90
2018-04-15T14:03:17.736Z,25.80
2018-04-15T14:05:45.864Z,25.70
2018-04-15T14:08:14.051Z,25.60
2018-04-15T14:10:42.225Z,25.50
2018-04-15T14:13:10.321Z,25.40
2018-04-15T14:15:38.459Z,25.40
2018-04-15T14:18:06.573Z,25.30
2018-04-15T14:20:34.682Z,25.30
2018-04-15T14:23:02.828Z,25.20
2018-04-15T14:25:30.966Z,25.10
2018-04-15T14:27:59.119Z,25.00
2018-04-15T14:30:27.321Z,24.90
2018-04-15T14:32:55.588Z,24.80
2018-04-15T14:35:23.809Z,24.70
2018-04-15T14:37:52.076Z,24.50
2018-04-15T14:40:20.307Z,24.40
2018-04-15T14:42:48.632Z,24.20
2018-04-15T14:45:16.724Z,24.00
2018-04-15T14:47:44.819Z,23.80
2018-04-15T14:50:13.013Z,23.60
2018-04-15T14:52:41.090Z,23.50
2018-04-15T14:55:10.071Z,23.40
2018-04-15T14:57:38.203Z,23.30
2018-04-15T15:00:06.287Z,23.30
2018-04-15T15:02:35.210Z,23.20
2018-04-15T15:05:03.351Z,23.10
2018-04-15T15:07:31.477Z,23.00
2018-04-15T15:09:59.590Z,23.00
2018-04-15T15:12:27.701Z,22.90
2018-04-15T15:14:55.799Z,22.80
2018-04-15T15:17:24.368Z,22.70
2018-04-15T15:19:52.493Z,22.70
2018-04-15T15:22:21.515Z,22.60
2018-04-15T15:24:49.643Z,22.60
2018-04-15T15:27:17.777Z,22.50
2018-04-15T15:29:46.497Z,22.40
2018-04-15T15:32:14.611Z,22.30
2018-04-15T15:34:42.743Z,22.20
2018-04-15T15:37:10.888Z,22.00
2018-04-15T15:39:39.013Z,21.90
2018-04-15T15:42:07.123Z,21.80
2018-04-15T15:44:36.698Z,21.60
2018-04-15T15:47:04.809Z,21.40
2018-04-15T15:49:33.707Z,21.30
2018-04-15T15:52:02.570Z,21.10
2018-04-15T15:54:30.697Z,21.00
2018-04-15T15:56:58.797Z,20.80
2018-04-15T15:59:27.621Z,20.70
2018-04-15T16:01:56.491Z,20.60
2018-04-15T16:04:24.641Z,20.50
2018-04-15T16:06:52.884Z,20.30
2018-04-15T16:09:21.119Z,20.20
2018-04-15T16:11:49.390Z,20.10
2018-04-15T16:14:17.550Z,20.00
2018-04-15T16:16:45.656Z,19.90
2018-04-15T16:19:13.834Z,19.80
2018-04-15T16:21:42.752Z,19.70
2018-04-15T16:24:11.608Z,19.60
2018-04-15T16:26:40.563Z,19.50
2018-04-15T16:29:08.770Z,19.50
2018-04-15T16:31:36.896Z,19.40
2018-04-15T16:34:04.990Z,19.40
2018-04-15T16:36:33.113Z,19.30
2018-04-15T16:39:01.227Z,19.30
2018-04-15T16:41:29.399Z,19.30
2018-04-15T16:43:57.577Z,19.20
2018-04-15T16:46:25.758Z,19.20
2018-04-15T16:48:53.938Z,19.10
2018-04-15T16:51:22.048Z,19.10
2018-04-15T16:53:50.599Z,19.10
2018-04-15T16:56:18.846Z,19.00
2018-04-15T16:58:46.980Z,19.00
2018-04-15T17:01:15.291Z,19.00
2018-04-15T17:03:43.492Z,18.90
2018-04-15T17:06:11.614Z,18.80
2018-04-15T17:08:39.747Z,18.80
2018-04-15T17:11:07.931Z,18.80
2018-04-15T17:13:35.999Z,18.80
2018-04-15T17:16:04.115Z,18.70
2018-04-15T17:18:32.226Z,18.70
2018-04-15T17:21:01.151Z,18.60
2018-04-15T17:23:29.264Z,18.60
2018-04-15T17:25:57.439Z,18.50
2018-04-15T17:28:25.568Z,18.50
2018-04-15T17:30:54.432Z,18.40
2018-04-15T17:33:22.630Z,18.40
2018-04-15T17:35:50.854Z,18.40
2018-04-15T17:38:18.971Z,18.30
2018-04-15T17:40:47.075Z,18.30
2018-04-15T17:43:15.271Z,18.20
2018-04-15T17:45:43.409Z,18.20
2018-04-15T17:48:11.561Z,18.10
2018-04-15T17:50:39.697Z,18.10
2018-04-15T17:53:08.212Z,18.00
2018-04-15T17:55:36.369Z,18.00
2018-04-15T17:58:04.487Z,17.90
2018-04-15T18:00:32.623Z,17.80
2018-04-15T18:03:00.742Z,17.70
2018-04-15T18:05:29.264Z,17.70
2018-04-15T18:07:57.431Z,17.60
2018-04-15T18:10:25.572Z,17.50
2018-04-15T18:12:53.686Z,17.40
2018-04-15T18:15:21.857Z,17.40
2018-04-15T18:17:49.942Z,17.30
2018-04-15T18:20:18.110Z,17.30
2018-04-15T18:22:46.245Z,17.20
2018-04-15T18:25:14.502Z,17.20
2018-04-15T18:27:42.644Z,17.20
2018-04-15T18:30:10.790Z,17.20
2018-04-15T18:32:38.924Z,17.10
2018-04-15T18:35:07.037Z,17.10
2018-04-15T18:37:35.200Z,17.10
2018-04-15T18:40:03.345Z,17.10
2018-04-15T18:42:31.556Z,17.00
2018-04-15T18:44:59.702Z,17.00
2018-04-15T18:47:28.460Z,17.00
2018-04-15T18:49:56.595Z,16.90
2018-04-15T18:52:25.074Z,16.90
2018-04-15T18:54:58.101Z,16.90
2018-04-15T18:57:27.753Z,16.80
2018-04-15T18:59:55.946Z,16.70
2018-04-15T19:15:19.147Z,15.80
2018-04-15T19:17:47.579Z,15.70
2018-04-15T19:20:21.647Z,15.70
2018-04-15T19:22:50.264Z,15.70
2018-04-15T19:25:19.283Z,15.70
2018-04-15T19:27:47.505Z,15.70
2018-04-15T19:30:15.659Z,15.70
2018-04-15T19:32:43.832Z,15.80
2018-04-15T19:35:11.968Z,15.80
2018-04-15T19:50:36.130Z,15.60
2018-04-15T19:53:04.549Z,15.60
2018-04-15T19:55:33.167Z,15.70
2018-04-15T19:58:01.979Z,15.80
2018-04-15T20:00:30.285Z,15.90
2018-04-15T20:02:59.214Z,16.00
2018-04-15T20:05:27.460Z,16.10
2018-04-15T20:07:55.606Z,16.20
2018-04-15T20:10:23.782Z,16.30
2018-04-15T20:12:51.913Z,16.30
2018-04-15T20:15:20.650Z,16.40
2018-04-15T20:17:48.858Z,16.40
2018-04-15T20:20:17.776Z,16.50
2018-04-15T20:22:48.504Z,16.50
2018-04-15T20:25:16.623Z,16.60
2018-04-15T20:27:45.656Z,16.60
2018-04-15T20:30:13.840Z,16.60
2018-04-15T20:32:41.977Z,16.50
2018-04-15T20:35:10.936Z,16.40
2018-04-15T20:37:39.100Z,16.30
2018-04-15T20:40:07.235Z,16.20
2018-04-15T20:42:35.383Z,16.10
2018-04-15T20:45:03.541Z,16.00
2018-04-15T20:47:31.669Z,15.90
2018-04-15T20:50:00.406Z,15.80
2018-04-15T20:52:29.394Z,15.70
2018-04-15T20:54:57.515Z,15.70
2018-04-15T20:57:25.639Z,15.50
2018-04-15T20:59:53.776Z,15.40
2018-04-15T21:02:21.927Z,15.20
2018-04-15T21:04:50.039Z,15.10
2018-04-15T21:07:18.189Z,15.00
2018-04-15T21:09:47.200Z,14.90
2018-04-15T21:12:15.325Z,14.90
2018-04-15T21:14:43.469Z,14.80
2018-04-15T21:17:11.581Z,14.70
2018-04-15T21:19:39.697Z,14.70
2018-04-15T21:22:07.813Z,14.60
2018-04-15T21:24:35.936Z,14.60
2018-04-15T21:27:04.088Z,14.60
2018-04-15T21:29:32.187Z,14.50
2018-04-15T21:32:00.338Z,14.50
2018-04-15T21:34:28.460Z,14.50
2018-04-15T21:36:56.556Z,14.50
2018-04-15T21:39:24.814Z,14.50
2018-04-15T21:41:53.135Z,14.50
2018-04-15T21:44:21.314Z,14.40
2018-04-15T21:46:50.187Z,14.40
2018-04-15T21:49:18.299Z,14.40
2018-04-15T21:51:46.407Z,14.40
2018-04-15T21:54:14.537Z,14.40
2018-04-15T21:56:42.670Z,14.40
2018-04-15T21:59:10.773Z,14.40
2018-04-15T22:01:39.054Z,14.30
2018-04-15T22:04:07.261Z,14.30
2018-04-15T22:06:35.472Z,14.30
2018-04-15T22:09:07.450Z,14.30
2018-04-15T22:11:53.375Z,14.30
2018-04-15T22:14:21.484Z,14.30
2018-04-15T22:16:49.610Z,14.30
2018-04-15T22:19:17.705Z,14.30
2018-04-15T22:21:45.838Z,14.20
2018-04-15T22:24:13.950Z,14.20
2018-04-15T22:26:42.089Z,14.20
2018-04-15T22:29:11.770Z,14.20
2018-04-15T22:31:39.868Z,14.20
2018-04-15T22:34:08.003Z,14.10
2018-04-15T22:36:36.117Z,14.10
2018-04-15T22:39:04.249Z,14.10
2018-04-15T22:41:32.417Z,14.10
2018-04-15T22:44:00.674Z,14.20
2018-04-15T22:46:29.564Z,14.20
2018-04-15T22:48:57.666Z,14.20
2018-04-15T22:51:25.783Z,14.20
2018-04-15T22:53:53.918Z,14.20
2018-04-15T22:56:22.022Z,14.20
2018-04-15T22:58:50.139Z,14.20
2018-04-15T23:01:18.442Z,14.10
2018-04-15T23:03:46.582Z,14.20
2018-04-15T23:06:14.860Z,14.20
2018-04-15T23:08:43.094Z,14.20
2018-04-15T23:11:11.325Z,14.10
2018-04-15T23:13:39.563Z,14.20
2018-04-15T23:16:07.757Z,14.20
2018-04-15T23:18:35.885Z,14.20
2018-04-15T23:21:04.007Z,14.20
2018-04-15T23:23:32.901Z,14.20
2018-04-15T23:26:01.023Z,14.20
2018-04-15T23:28:29.469Z,14.20
2018-04-15T23:30:57.580Z,14.20
2018-04-15T23:33:25.695Z,14.20
2018-04-15T23:35:53.810Z,14.20
2018-04-15T23:38:21.925Z,14.20
2018-04-15T23:40:50.027Z,14.20
2018-04-15T23:43:18.144Z,14.20
2018-04-15T23:45:46.283Z,14.30
2018-04-15T23:48:14.381Z,14.30
2018-04-15T23:50:42.508Z,14.30
2018-04-15T23:53:11.374Z,14.30
2018-04-15T23:55:39.492Z,14.40
2018-04-15T23:58:07.596Z,14.40
